createdAt,value
2022-10-06T00:00:42.043Z,1.80
2022-10-06T00:03:10.799Z,3.50
2022-10-06T00:05:40.636Z,3.00
2022-10-06T00:08:10.246Z,2.00
2022-10-06T00:10:40.186Z,3.40
2022-10-06T00:13:08.586Z,3.60
2022-10-06T00:15:37.034Z,4.00
2022-10-06T00:18:05.578Z,3.93
2022-10-06T00:20:33.740Z,3.67
2022-10-06T00:23:04.522Z,3.40
2022-10-06T00:25:33.443Z,3.40
2022-10-06T00:28:02.368Z,1.60
2022-10-06T00:30:31.792Z,1.50
2022-10-06T00:33:02.477Z,1.93
2022-10-06T00:35:33.686Z,2.53
2022-10-06T00:38:04.378Z,3.23
2022-10-06T00:40:33.036Z,2.90
2022-10-06T00:43:02.761Z,6.10
2022-10-06T00:45:35.106Z,1.57
2022-10-06T00:48:07.308Z,1.60
2022-10-06T00:50:36.975Z,1.60
2022-10-06T00:53:07.286Z,2.50
2022-10-06T00:55:35.841Z,2.20
2022-10-06T00:58:04.736Z,1.87
2022-10-06T01:00:34.790Z,2.00
2022-10-06T01:03:07.383Z,1.53
2022-10-06T01:05:41.618Z,2.07
2022-10-06T01:08:11.972Z,2.57
2022-10-06T01:10:40.580Z,3.70
2022-10-06T01:13:10.556Z,1.70
2022-10-06T01:15:42.859Z,4.03
2022-10-06T01:18:13.953Z,1.57
2022-10-06T01:20:50.283Z,3.20
2022-10-06T01:23:20.646Z,1.40
2022-10-06T01:25:49.508Z,2.07
2022-10-06T01:28:18.437Z,2.83
2022-10-06T01:30:52.588Z,3.10
2022-10-06T01:33:22.135Z,3.03
2022-10-06T01:35:52.476Z,1.47
2022-10-06T01:38:23.668Z,1.63
2022-10-06T01:40:53.202Z,1.77
2022-10-06T01:43:22.112Z,3.80
2022-10-06T01:45:57.551Z,4.23
2022-10-06T01:48:27.293Z,1.50
2022-10-06T01:50:56.127Z,2.40
2022-10-06T01:53:25.805Z,3.03
2022-10-06T01:55:54.156Z,2.67
2022-10-06T01:58:22.711Z,1.30
2022-10-06T02:00:54.378Z,1.83
2022-10-06T02:03:22.498Z,1.40
2022-10-06T02:05:51.519Z,3.33
2022-10-06T02:08:19.686Z,2.97
2022-10-06T02:10:49.618Z,4.47
2022-10-06T02:13:18.252Z,2.53
2022-10-06T02:15:46.295Z,3.77
2022-10-06T02:18:14.449Z,6.60
2022-10-06T02:20:42.712Z,3.60
2022-10-06T02:23:11.087Z,1.30
2022-10-06T02:25:39.358Z,2.20
2022-10-06T02:28:09.169Z,2.17
2022-10-06T02:30:38.578Z,2.20
2022-10-06T02:33:07.722Z,2.10
2022-10-06T02:35:36.189Z,2.33
2022-10-06T02:38:04.863Z,2.60
2022-10-06T02:40:33.976Z,1.73
2022-10-06T02:43:03.033Z,2.60
2022-10-06T02:45:33.246Z,2.07
2022-10-06T02:48:01.640Z,3.07
2022-10-06T02:50:29.998Z,1.47
2022-10-06T02:52:58.566Z,2.73
2022-10-06T02:55:27.166Z,1.30
2022-10-06T02:57:56.354Z,1.87
2022-10-06T03:00:25.011Z,2.87
2022-10-06T03:02:55.037Z,1.63
2022-10-06T03:05:23.634Z,4.20
2022-10-06T03:07:52.238Z,4.23
2022-10-06T03:10:20.626Z,7.90
2022-10-06T03:12:49.581Z,1.70
2022-10-06T03:15:20.957Z,4.67
2022-10-06T03:17:50.263Z,2.63
2022-10-06T03:20:20.435Z,1.57
2022-10-06T03:22:48.858Z,2.20
2022-10-06T03:25:17.645Z,2.20
2022-10-06T03:27:46.043Z,2.67
2022-10-06T03:30:15.820Z,2.00
2022-10-06T03:32:44.511Z,4.87
2022-10-06T03:35:12.571Z,4.60
2022-10-06T03:37:42.591Z,4.07
2022-10-06T03:40:11.435Z,3.97
2022-10-06T03:42:39.731Z,9.80
2022-10-06T03:45:08.667Z,8.20
2022-10-06T03:47:37.022Z,16.93
2022-10-06T03:50:05.461Z,3.83
2022-10-06T03:52:34.145Z,9.13
2022-10-06T03:57:47.696Z,2.83
2022-10-06T04:00:16.421Z,7.97
2022-10-06T04:02:44.943Z,6.23
2022-10-06T04:05:13.038Z,2.77
2022-10-06T04:07:41.529Z,3.77
2022-10-06T04:10:12.167Z,2.23
2022-10-06T04:12:40.584Z,2.67
2022-10-06T04:15:09.451Z,7.17
2022-10-06T04:17:38.005Z,2.70
2022-10-06T04:20:06.701Z,5.97
2022-10-06T04:22:35.050Z,7.20
2022-10-06T04:25:03.384Z,6.23
2022-10-06T04:27:34.140Z,6.53
2022-10-06T04:30:02.603Z,10.57
2022-10-06T04:32:31.097Z,8.97
2022-10-06T04:34:59.852Z,4.33
2022-10-06T04:37:29.997Z,8.60
2022-10-06T04:39:58.857Z,8.57
2022-10-06T04:42:34.754Z,11.07
2022-10-06T04:45:06.097Z,8.67
2022-10-06T04:47:34.640Z,8.83
2022-10-06T04:50:04.414Z,4.93
2022-10-06T04:52:32.992Z,2.97
2022-10-06T04:55:01.506Z,5.43
2022-10-06T04:57:30.442Z,21.30
2022-10-06T05:00:17.776Z,7.43
2022-10-06T05:02:47.918Z,12.53
2022-10-06T05:05:25.071Z,14.67
2022-10-06T05:08:11.997Z,8.00
2022-10-06T05:10:44.896Z,8.53
2022-10-06T05:13:37.068Z,17.93
2022-10-06T05:16:07.528Z,5.10
2022-10-06T05:18:37.746Z,7.83
2022-10-06T05:21:08.272Z,4.03
2022-10-06T05:23:46.345Z,5.23
2022-10-06T05:26:31.553Z,4.33
2022-10-06T05:29:01.068Z,4.40
2022-10-06T05:34:36.228Z,8.83
2022-10-06T05:48:27.226Z,24.50
2022-10-06T05:51:06.478Z,24.53
2022-10-06T05:53:38.390Z,14.67
2022-10-06T05:56:22.929Z,13.47
2022-10-06T05:58:54.739Z,8.00
2022-10-06T06:01:25.827Z,8.23
2022-10-06T06:04:00.128Z,4.37
2022-10-06T06:09:20.169Z,4.93
2022-10-06T06:11:53.144Z,4.87
2022-10-06T06:17:26.473Z,5.73
2022-10-06T06:19:55.230Z,2.20
2022-10-06T06:22:27.910Z,3.00
2022-10-06T06:24:57.787Z,2.57
2022-10-06T06:27:29.483Z,2.33
2022-10-06T06:35:52.878Z,3.40
2022-10-06T06:38:23.083Z,4.27
2022-10-06T06:44:01.813Z,2.87
2022-10-06T07:05:20.794Z,4.50
2022-10-06T07:11:05.431Z,10.07
2022-10-06T07:51:09.966Z,7.67
2022-10-06T07:57:01.247Z,3.60
2022-10-06T08:40:54.518Z,2.20
2022-10-06T09:12:28.634Z,6.33
2022-10-06T09:18:13.708Z,4.57
2022-10-06T09:26:59.333Z,4.67
2022-10-06T09:29:41.098Z,2.43
2022-10-06T09:32:11.105Z,3.90
2022-10-06T09:37:32.565Z,5.43
2022-10-06T09:40:02.555Z,3.53
2022-10-06T10:23:28.577Z,2.63
2022-10-06T10:38:14.416Z,7.53
2022-10-06T10:40:48.889Z,5.47
2022-10-06T10:43:30.974Z,7.33
2022-10-06T10:46:04.205Z,2.97
2022-10-06T10:48:43.185Z,6.70
2022-10-06T11:14:43.285Z,8.07
2022-10-06T11:17:32.334Z,6.87
2022-10-06T11:29:58.474Z,5.03
2022-10-06T11:41:21.723Z,5.67
2022-10-06T12:57:29.920Z,9.43
2022-10-06T13:40:43.620Z,10.07
2022-10-06T13:43:18.159Z,4.17
2022-10-06T13:45:48.391Z,12.17
2022-10-06T13:48:23.809Z,6.67
2022-10-06T13:50:53.119Z,4.27
2022-10-06T13:53:30.158Z,4.63
2022-10-06T13:55:59.145Z,5.57
2022-10-06T13:58:29.905Z,5.20
2022-10-06T14:01:00.715Z,7.63
2022-10-06T14:06:09.411Z,4.77
2022-10-06T14:08:38.075Z,5.63
2022-10-06T14:11:08.540Z,10.87
2022-10-06T14:13:48.487Z,7.50
2022-10-06T14:16:21.820Z,3.73
2022-10-06T14:18:58.299Z,3.90
2022-10-06T14:21:36.844Z,13.57
2022-10-06T14:24:09.890Z,6.03
2022-10-06T14:26:38.449Z,6.40
2022-10-06T14:29:06.450Z,10.57
2022-10-06T14:31:34.670Z,14.77
2022-10-06T14:34:05.740Z,13.70
2022-10-06T14:36:37.108Z,17.37
2022-10-06T14:39:07.000Z,5.90
2022-10-06T14:41:35.109Z,7.67
2022-10-06T14:44:05.991Z,3.93
2022-10-06T14:46:34.487Z,9.70
2022-10-06T14:49:07.437Z,6.27
2022-10-06T14:51:37.294Z,14.27
2022-10-06T14:54:07.427Z,7.13
2022-10-06T14:56:37.808Z,16.50
2022-10-06T14:59:07.873Z,3.10
2022-10-06T15:01:38.295Z,14.57
2022-10-06T15:04:09.794Z,4.43
2022-10-06T15:06:55.118Z,8.70
2022-10-06T15:09:23.846Z,7.50
2022-10-06T15:11:51.939Z,8.97
2022-10-06T15:14:20.020Z,3.23
2022-10-06T15:16:48.878Z,4.20
2022-10-06T15:19:19.240Z,4.37
2022-10-06T15:21:47.382Z,10.57
2022-10-06T15:24:17.605Z,8.23
2022-10-06T15:27:04.113Z,10.47
2022-10-06T15:29:33.484Z,11.67
2022-10-06T15:32:03.318Z,14.00
2022-10-06T15:34:37.202Z,7.97
2022-10-06T15:37:07.406Z,7.20
2022-10-06T15:39:41.427Z,9.13
2022-10-06T15:42:11.929Z,8.57
2022-10-06T15:44:40.795Z,10.50
2022-10-06T15:47:11.700Z,7.13
2022-10-06T15:49:43.292Z,10.87
2022-10-06T15:52:17.896Z,6.43
2022-10-06T15:54:50.021Z,7.53
2022-10-06T15:57:21.347Z,9.57
2022-10-06T15:59:51.790Z,7.30
2022-10-06T16:02:21.173Z,7.13
2022-10-06T16:05:18.073Z,6.93
2022-10-06T16:07:46.550Z,5.47
2022-10-06T16:10:15.033Z,6.00
2022-10-06T16:12:43.602Z,8.10
2022-10-06T16:15:12.499Z,7.33
2022-10-06T16:17:41.268Z,5.97
2022-10-06T16:20:12.398Z,4.43
2022-10-06T16:22:42.551Z,4.73
2022-10-06T16:25:13.388Z,6.77
2022-10-06T16:27:41.591Z,3.80
2022-10-06T16:30:10.505Z,8.10
2022-10-06T16:32:42.156Z,10.70
2022-10-06T16:35:18.184Z,10.77
2022-10-06T16:37:50.468Z,4.10
2022-10-06T16:40:19.526Z,7.70
2022-10-06T16:42:48.214Z,8.23
2022-10-06T16:45:17.179Z,10.17
2022-10-06T16:47:46.184Z,8.47
2022-10-06T16:50:16.314Z,13.40
2022-10-06T16:52:44.789Z,13.30
2022-10-06T16:55:14.073Z,19.43
2022-10-06T16:57:42.417Z,10.17
2022-10-06T17:00:12.615Z,19.60
2022-10-06T17:02:41.776Z,16.90
2022-10-06T17:05:10.562Z,13.10
2022-10-06T17:07:41.281Z,24.40
2022-10-06T17:10:25.843Z,13.10
2022-10-06T17:12:54.305Z,15.53
2022-10-06T17:15:24.025Z,8.93
2022-10-06T17:17:56.390Z,9.13
2022-10-06T17:20:24.387Z,14.03
2022-10-06T17:22:54.456Z,7.23
2022-10-06T17:25:24.364Z,8.53
2022-10-06T17:27:52.360Z,11.90
2022-10-06T17:30:21.453Z,21.40
2022-10-06T17:32:50.100Z,7.97
2022-10-06T17:35:21.013Z,8.83
2022-10-06T17:37:50.323Z,14.67
2022-10-06T17:40:19.815Z,9.33
2022-10-06T17:42:48.105Z,6.63
2022-10-06T17:45:21.021Z,11.37
2022-10-06T17:47:49.567Z,6.63
2022-10-06T17:50:18.082Z,7.37
2022-10-06T17:52:46.287Z,7.87
2022-10-06T17:55:19.802Z,11.07
2022-10-06T17:57:50.245Z,8.30
2022-10-06T18:00:18.866Z,9.47
2022-10-06T18:02:51.552Z,9.13
2022-10-06T18:05:20.826Z,9.50
2022-10-06T18:07:49.401Z,12.13
2022-10-06T18:10:35.013Z,8.93
2022-10-06T18:13:05.809Z,6.80
2022-10-06T18:15:37.733Z,7.43
2022-10-06T18:18:06.254Z,10.97
2022-10-06T18:20:40.717Z,17.27
2022-10-06T18:23:09.908Z,16.43
2022-10-06T18:25:38.381Z,13.67
2022-10-06T18:28:12.077Z,11.47
2022-10-06T18:30:40.556Z,12.47
2022-10-06T18:36:15.363Z,9.90
2022-10-06T18:38:47.288Z,5.73
2022-10-06T18:41:18.197Z,9.97
2022-10-06T18:43:48.408Z,8.27
2022-10-06T18:46:50.775Z,7.03
2022-10-06T18:49:22.533Z,7.23
2022-10-06T18:51:57.895Z,8.93
2022-10-06T18:54:35.486Z,7.07
2022-10-06T19:00:57.773Z,8.27
2022-10-06T19:06:58.255Z,8.07
2022-10-06T19:09:29.070Z,6.93
2022-10-06T19:23:26.519Z,8.60
2022-10-06T19:26:05.028Z,8.00
2022-10-06T19:34:08.710Z,10.17
2022-10-06T19:36:39.898Z,10.27
2022-10-06T19:39:26.954Z,9.37
2022-10-06T19:42:15.621Z,9.57
2022-10-06T19:44:44.015Z,6.27
2022-10-06T19:47:14.656Z,9.97
2022-10-06T19:49:43.856Z,6.53
2022-10-06T19:52:14.252Z,10.10
2022-10-06T19:54:46.328Z,9.27
2022-10-06T19:57:14.803Z,9.93
2022-10-06T19:59:44.514Z,13.00
2022-10-06T20:02:14.318Z,8.80
2022-10-06T20:04:43.472Z,8.13
2022-10-06T20:07:24.807Z,10.43
2022-10-06T20:09:56.684Z,12.03
2022-10-06T20:12:27.097Z,10.07
2022-10-06T20:14:55.995Z,7.57
2022-10-06T20:17:24.534Z,9.73
2022-10-06T20:19:57.775Z,15.80
2022-10-06T20:22:27.397Z,10.10
2022-10-06T20:24:58.599Z,9.47
2022-10-06T20:27:27.450Z,10.87
2022-10-06T20:29:57.026Z,13.43
2022-10-06T20:32:25.907Z,8.63
2022-10-06T20:34:54.843Z,7.87
2022-10-06T20:37:23.444Z,10.83
2022-10-06T20:40:11.298Z,8.47
2022-10-06T20:42:45.030Z,10.13
2022-10-06T20:45:14.009Z,10.60
2022-10-06T20:47:42.727Z,13.20
2022-10-06T20:50:11.933Z,14.90
2022-10-06T20:52:40.723Z,16.30
2022-10-06T20:55:09.904Z,12.43
2022-10-06T20:57:39.107Z,12.37
2022-10-06T21:00:10.918Z,11.73
2022-10-06T21:02:40.945Z,10.53
2022-10-06T21:05:10.342Z,7.23
2022-10-06T21:07:47.583Z,10.93
2022-10-06T21:10:16.995Z,9.37
2022-10-06T21:12:46.378Z,11.00
2022-10-06T21:15:16.435Z,9.50
2022-10-06T21:17:46.905Z,11.93
2022-10-06T21:20:15.794Z,9.37
2022-10-06T21:22:44.517Z,9.33
2022-10-06T21:25:12.956Z,12.10
2022-10-06T21:27:42.073Z,11.87
2022-10-06T21:30:16.284Z,13.83
2022-10-06T21:32:46.454Z,8.33
2022-10-06T21:35:15.980Z,14.43
2022-10-06T21:37:45.632Z,9.53
2022-10-06T21:40:14.900Z,7.93
2022-10-06T21:42:43.936Z,11.40
2022-10-06T21:45:13.726Z,10.80
2022-10-06T21:47:42.723Z,13.30
2022-10-06T21:50:12.909Z,9.73
2022-10-06T21:52:41.258Z,9.13
2022-10-06T21:55:09.780Z,12.43
2022-10-06T21:57:38.310Z,11.10
2022-10-06T22:00:11.068Z,10.03
2022-10-06T22:02:39.810Z,8.67
2022-10-06T22:05:08.500Z,9.00
2022-10-06T22:07:38.388Z,7.90
2022-10-06T22:10:07.181Z,9.93
2022-10-06T22:12:35.591Z,7.57
2022-10-06T22:15:04.378Z,10.13
2022-10-06T22:17:33.292Z,9.73
2022-10-06T22:20:01.792Z,8.37
2022-10-06T22:22:30.594Z,10.27
2022-10-06T22:25:00.294Z,10.30
2022-10-06T22:27:28.646Z,7.13
2022-10-06T22:29:57.024Z,8.83
2022-10-06T22:32:25.506Z,9.30
2022-10-06T22:34:53.969Z,7.07
2022-10-06T22:37:22.367Z,9.93
2022-10-06T22:39:50.735Z,7.60
2022-10-06T22:42:20.495Z,6.50
2022-10-06T22:44:48.905Z,7.67
2022-10-06T22:47:18.331Z,7.73
2022-10-06T22:49:46.803Z,8.43
2022-10-06T22:52:15.278Z,6.73
2022-10-06T22:54:45.087Z,5.17
2022-10-06T22:57:13.623Z,7.03
2022-10-06T22:59:44.321Z,6.60
2022-10-06T23:02:13.162Z,5.60
2022-10-06T23:04:41.448Z,8.67
2022-10-06T23:07:10.078Z,7.17
2022-10-06T23:09:38.507Z,10.00
2022-10-06T23:12:06.876Z,9.33
2022-10-06T23:14:35.701Z,7.93
2022-10-06T23:17:11.468Z,8.40
2022-10-06T23:19:39.982Z,5.67
2022-10-06T23:22:09.286Z,10.47
2022-10-06T23:24:37.799Z,8.87
2022-10-06T23:27:07.249Z,7.87
2022-10-06T23:29:36.091Z,9.10
2022-10-06T23:32:06.296Z,6.80
2022-10-06T23:34:34.872Z,6.73
2022-10-06T23:37:03.829Z,9.70
2022-10-06T23:39:32.669Z,10.43
2022-10-06T23:42:01.555Z,8.13
2022-10-06T23:44:30.144Z,6.63
2022-10-06T23:46:59.657Z,6.83
2022-10-06T23:49:29.823Z,6.40
2022-10-06T23:51:58.857Z,6.83
2022-10-06T23:54:27.327Z,6.20
2022-10-06T23:56:56.066Z,4.83
2022-10-06T23:59:26.320Z,6.07
